Time;durP1;ratioP1;P1;durP2;ratioP2;P2;SDS_P1;SDS_P2;PMS_P1;PMS_P2;Temp;Humidity;BMP_temperature;BMP_pressure;BME280_temperature;BME280_humidity;BME280_pressure;Samples;Min_cycle;Max_cycle;Signal;HPM_P1;HPM_P2
2022/05/29 00:01:17;;;;;;;10.63;7.55;;;;;;;5.24;94.44;97825.08;1779008;80;20889;-86
2022/05/29 00:03:43;;;;;;;13.88;7.85;;;;;;;5.18;95.30;97814.52;1778950;80;21501;-83
2022/05/29 00:06:10;;;;;;;10.10;7.15;;;;;;;5.17;93.69;97815.58;1779214;80;21040;-83
2022/05/29 00:08:38;;;;;;;17.10;8.85;;;;;;;5.12;93.07;97817.66;1748669;80;21464;-86
2022/05/29 00:11:04;;;;;;;13.40;7.53;;;;;;;5.06;92.27;97816.80;1779405;80;21576;-85
2022/05/29 00:13:30;;;;;;;21.00;9.38;;;;;;;5.04;95.09;97812.72;1755063;80;21077;-85
2022/05/29 00:15:56;;;;;;;13.20;7.75;;;;;;;5.03;94.53;97815.93;1779285;80;20961;-85
2022/05/29 00:18:22;;;;;;;11.28;6.97;;;;;;;5.01;95.04;97817.25;1778929;80;21161;-85
2022/05/29 00:20:51;;;;;;;11.83;7.65;;;;;;;5.01;95.92;97814.03;1779313;80;20964;-85
2022/05/29 00:23:17;;;;;;;14.23;8.30;;;;;;;5.04;94.06;97813.55;1779093;79;20988;-85
2022/05/29 00:25:44;;;;;;;13.70;7.50;;;;;;;5.03;95.52;97809.75;1779494;80;20949;-85
2022/05/29 00:28:10;;;;;;;14.65;7.28;;;;;;;5.05;95.77;97817.05;1774713;79;21030;-85
2022/05/29 00:30:36;;;;;;;11.03;7.45;;;;;;;5.07;94.92;97811.70;1779578;80;21320;-83
2022/05/29 00:33:02;;;;;;;17.45;8.30;;;;;;;5.08;95.20;97807.95;1779205;80;20870;-86
2022/05/29 00:35:28;;;;;;;11.00;6.78;;;;;;;5.07;94.72;97813.05;1779099;80;21012;-83
2022/05/29 00:37:54;;;;;;;14.18;7.55;;;;;;;5.02;94.66;97808.13;1775473;80;20972;-85
2022/05/29 00:40:33;;;;;;;12.90;7.53;;;;;;;4.97;94.64;97805.39;1779325;80;20952;-83
2022/05/29 00:42:59;;;;;;;10.38;6.42;;;;;;;4.99;94.68;97805.42;1764804;79;21145;-84
2022/05/29 00:45:26;;;;;;;14.85;7.05;;;;;;;4.95;95.55;97809.64;1773890;80;20921;-86
2022/05/29 00:47:52;;;;;;;12.78;7.03;;;;;;;4.89;94.99;97800.45;1767175;79;21272;-84
2022/05/29 00:50:22;;;;;;;10.78;7.17;;;;;;;4.85;94.32;97801.99;1766341;80;21028;-84
2022/05/29 00:52:48;;;;;;;13.15;7.67;;;;;;;4.72;94.78;97805.33;1775405;79;21048;-85
2022/05/29 00:55:22;;;;;;;13.58;7.50;;;;;;;4.67;94.87;97806.58;1779251;80;21133;-83
2022/05/29 00:58:02;;;;;;;12.50;6.60;;;;;;;4.65;94.25;97806.56;1768527;80;20987;-85
2022/05/29 01:00:29;;;;;;;12.37;6.33;;;;;;;4.60;93.71;97806.47;1772178;80;21119;-84
2022/05/29 01:02:58;;;;;;;21.37;7.58;;;;;;;4.59;95.11;97806.19;1764598;80;20975;-83
2022/05/29 01:05:25;;;;;;;14.33;7.40;;;;;;;4.64;93.82;97809.77;1773898;80;21001;-83
2022/05/29 01:07:55;;;;;;;13.78;6.83;;;;;;;4.64;94.94;97811.11;1779166;80;21032;-83
2022/05/29 01:10:23;;;;;;;12.85;6.78;;;;;;;4.63;94.15;97820.76;1743438;80;20976;-84
2022/05/29 01:13:24;;;;;;;10.30;6.47;;;;;;;4.52;93.62;97819.77;1751723;80;21044;-83
2022/05/29 01:16:10;;;;;;;9.85;6.25;;;;;;;4.38;94.33;97813.94;1772326;80;21489;-85
2022/05/29 01:18:57;;;;;;;14.13;7.25;;;;;;;4.32;93.00;97818.12;1767374;79;21001;-85
2022/05/29 01:21:58;;;;;;;10.65;6.80;;;;;;;4.20;93.11;97815.53;1775141;80;21244;-84
2022/05/29 01:24:47;;;;;;;10.63;6.12;;;;;;;4.07;92.16;97821.20;1778783;80;21013;-83
2022/05/29 01:27:42;;;;;;;10.08;6.22;;;;;;;3.98;94.47;97824.81;1776957;80;21005;-85
2022/05/29 01:30:20;;;;;;;13.15;6.80;;;;;;;3.99;93.69;97826.43;1753537;80;21050;-84
2022/05/29 01:33:17;;;;;;;11.22;6.95;;;;;;;3.96;94.90;97822.91;1749224;80;20992;-83
2022/05/29 01:35:57;;;;;;;12.58;6.72;;;;;;;3.85;95.47;97827.81;1778783;80;21485;-83
2022/05/29 01:38:31;;;;;;;11.48;6.28;;;;;;;3.84;93.33;97828.84;1776120;80;20985;-85
2022/05/29 01:41:01;;;;;;;11.73;6.03;;;;;;;3.73;91.87;97826.50;1774109;80;21025;-84
2022/05/29 01:43:41;;;;;;;10.45;6.25;;;;;;;3.66;94.29;97822.63;1778468;80;21033;-83
2022/05/29 01:46:17;;;;;;;13.08;6.15;;;;;;;3.69;95.27;97824.03;1779406;80;21414;-85
2022/05/29 01:49:09;;;;;;;13.70;7.25;;;;;;;3.73;92.80;97828.37;1759707;80;21137;-82
2022/05/29 01:52:06;;;;;;;14.87;6.25;;;;;;;3.67;95.20;97825.62;1779062;79;20992;-85
2022/05/29 01:54:40;;;;;;;12.75;7.62;;;;;;;3.66;95.35;97832.00;1778526;80;21004;-85
2022/05/29 01:57:14;;;;;;;9.95;6.10;;;;;;;3.74;94.81;97836.17;1776841;79;21044;-85
2022/05/29 02:00:07;;;;;;;10.93;6.65;;;;;;;3.81;95.43;97830.67;1776161;80;21063;-85
2022/05/29 02:02:59;;;;;;;11.20;6.12;;;;;;;3.84;95.33;97828.84;1770396;79;21137;-83
2022/05/29 02:05:39;;;;;;;11.35;6.12;;;;;;;3.79;95.97;97831.45;1747360;80;20979;-82
2022/05/29 02:08:29;;;;;;;9.25;5.10;;;;;;;3.77;95.04;97830.88;1759690;80;21067;-86
2022/05/29 02:11:06;;;;;;;6.85;4.72;;;;;;;3.71;93.79;97839.87;1746414;80;21045;-82
2022/05/29 02:13:48;;;;;;;9.93;5.35;;;;;;;3.63;93.88;97847.23;1743546;80;21075;-85
2022/05/29 02:16:40;;;;;;;12.05;5.33;;;;;;;3.57;94.84;97839.33;1762002;80;21453;-82
2022/05/29 02:19:28;;;;;;;7.08;4.60;;;;;;;3.54;95.47;97836.61;1760612;80;21009;-82
2022/05/29 02:22:10;;;;;;;10.23;5.58;;;;;;;3.57;94.37;97839.33;1775457;80;21063;-83
2022/05/29 02:24:40;;;;;;;10.95;5.05;;;;;;;3.53;92.57;97851.06;1762296;80;20994;-85
2022/05/29 02:27:34;;;;;;;11.73;5.37;;;;;;;3.45;92.46;97844.74;1737958;80;21082;-83
2022/05/29 02:30:01;;;;;;;10.82;5.83;;;;;;;3.43;94.78;97847.38;1777323;80;21429;-83
2022/05/29 02:32:38;;;;;;;7.28;5.20;;;;;;;3.46;96.47;97844.21;1778911;80;21024;-83
2022/05/29 02:35:29;;;;;;;10.10;5.55;;;;;;;3.44;95.78;97843.12;1754778;80;21019;-84
2022/05/29 02:38:12;;;;;;;8.90;5.10;;;;;;;3.39;95.87;97845.16;1753484;80;21068;-84
2022/05/29 02:41:10;;;;;;;11.05;6.85;;;;;;;3.41;94.99;97848.93;1773390;80;21020;-83
2022/05/29 02:44:02;;;;;;;18.52;6.33;;;;;;;3.30;94.91;97849.78;1778872;80;21322;-84
2022/05/29 02:46:53;;;;;;;9.95;5.40;;;;;;;3.28;93.37;97852.70;1778985;80;21024;-85
2022/05/29 02:49:43;;;;;;;15.20;6.03;;;;;;;3.28;92.75;97854.05;1759127;80;21003;-82
2022/05/29 02:52:14;;;;;;;9.33;5.40;;;;;;;3.25;92.58;97862.56;1779299;79;20988;-83
2022/05/29 02:54:40;;;;;;;11.10;5.95;;;;;;;3.25;92.79;97859.08;1779455;80;21092;-83
2022/05/29 02:57:08;;;;;;;10.68;5.25;;;;;;;3.22;93.05;97864.88;1779434;80;21072;-82
2022/05/29 02:59:41;;;;;;;12.68;5.53;;;;;;;3.20;95.62;97865.65;1778991;80;21048;-85
2022/05/29 03:02:28;;;;;;;7.72;4.35;;;;;;;3.24;93.76;97866.79;1778735;79;20977;-83
2022/05/29 03:05:31;;;;;;;9.70;5.55;;;;;;;3.17;94.36;97858.91;1779073;80;21004;-85
2022/05/29 03:08:09;;;;;;;9.73;5.40;;;;;;;3.14;95.77;97864.72;1779017;79;20988;-83
2022/05/29 03:10:41;;;;;;;9.40;5.35;;;;;;;3.07;95.70;97872.88;1778668;80;21192;-85
2022/05/29 03:13:13;;;;;;;10.48;6.50;;;;;;;3.00;95.27;97864.17;1779038;80;20976;-84
2022/05/29 03:16:06;;;;;;;10.82;6.30;;;;;;;2.94;95.37;97864.29;1779297;80;21056;-82
2022/05/29 03:18:58;;;;;;;15.03;6.10;;;;;;;2.94;95.36;97875.00;1779192;79;21056;-84
2022/05/29 03:21:41;;;;;;;14.90;6.37;;;;;;;2.94;95.15;97873.13;1778993;80;21036;-84
2022/05/29 03:24:33;;;;;;;8.95;5.50;;;;;;;2.99;95.87;97872.41;1778594;80;21569;-84
2022/05/29 03:27:05;;;;;;;14.45;5.97;;;;;;;3.05;95.38;97870.95;1778093;80;21088;-84
2022/05/29 03:29:51;;;;;;;8.80;5.90;;;;;;;3.14;95.43;97860.70;1779054;80;21017;-85
2022/05/29 03:32:17;;;;;;;12.35;5.60;;;;;;;3.15;95.42;97861.52;1773952;80;21075;-85
2022/05/29 03:34:42;;;;;;;8.43;5.60;;;;;;;3.26;95.33;97861.51;1737680;80;20912;-83
2022/05/29 03:37:08;;;;;;;12.10;5.72;;;;;;;3.35;94.56;97863.30;1737479;80;21075;-82
2022/05/29 03:39:34;;;;;;;9.10;5.65;;;;;;;3.43;94.23;97860.24;1779029;80;20854;-85
2022/05/29 03:42:00;;;;;;;16.12;6.50;;;;;;;3.48;94.73;97863.53;1778600;79;21418;-82
2022/05/29 03:44:26;;;;;;;8.48;5.35;;;;;;;3.57;94.27;97860.23;1779098;80;21027;-82
2022/05/29 03:46:52;;;;;;;11.80;5.40;;;;;;;3.66;93.71;97865.50;1779386;80;20865;-82
2022/05/29 03:49:20;;;;;;;9.05;5.60;;;;;;;3.81;94.14;97859.63;1779084;80;21303;-83
2022/05/29 03:51:46;;;;;;;7.45;5.28;;;;;;;3.89;93.88;97851.72;1779595;79;21100;-83
2022/05/29 03:54:12;;;;;;;8.63;5.70;;;;;;;4.03;93.34;97861.63;1765651;80;21039;-84
2022/05/29 03:56:38;;;;;;;9.75;6.22;;;;;;;4.13;93.63;97852.42;1738170;81;21011;-84
2022/05/29 03:59:04;;;;;;;8.93;5.00;;;;;;;4.28;93.01;97862.08;1773042;80;21413;-83
2022/05/29 04:01:30;;;;;;;12.68;6.58;;;;;;;4.42;92.56;97856.66;1778716;79;21128;-85
2022/05/29 04:03:56;;;;;;;8.25;5.17;;;;;;;4.53;92.21;97858.99;1774727;80;20873;-82
2022/05/29 04:06:25;;;;;;;8.85;5.22;;;;;;;4.67;91.60;97855.43;1779076;80;20936;-83
2022/05/29 04:14:21;;;;;;;8.80;4.70;;;;;;;4.92;90.85;97860.36;1776222;80;21528;-85
2022/05/29 04:16:47;;;;;;;11.15;5.60;;;;;;;5.07;90.86;97861.92;1778268;80;21064;-82
2022/05/29 04:19:13;;;;;;;9.05;5.33;;;;;;;5.18;90.26;97857.49;1774769;80;21001;-83
2022/05/29 04:21:39;;;;;;;9.13;5.42;;;;;;;5.26;90.10;97855.72;1779110;80;21000;-83
2022/05/29 04:24:06;;;;;;;8.38;5.30;;;;;;;5.32;90.19;97856.08;1764731;80;20877;-85
2022/05/29 04:26:33;;;;;;;9.93;5.83;;;;;;;5.40;89.65;97849.45;1737753;81;21053;-85
2022/05/29 04:29:01;;;;;;;11.68;4.78;;;;;;;5.44;90.21;97854.06;1772066;80;20993;-85
2022/05/29 04:31:27;;;;;;;8.37;5.37;;;;;;;5.71;89.93;97855.98;1779029;79;21016;-85
2022/05/29 04:33:53;;;;;;;5.85;4.33;;;;;;;5.80;89.38;97854.46;1775287;80;21009;-83
2022/05/29 04:36:19;;;;;;;10.88;5.65;;;;;;;5.94;89.10;97849.00;1737545;82;20889;-85
2022/05/29 04:38:45;;;;;;;10.63;4.85;;;;;;;6.00;89.44;97853.38;1742500;80;21156;-85
2022/05/29 04:41:11;;;;;;;10.05;5.05;;;;;;;6.20;89.17;97854.09;1778898;80;20921;-86
2022/05/29 04:43:37;;;;;;;6.47;4.50;;;;;;;6.45;89.32;97854.31;1773337;79;20889;-85
2022/05/29 04:46:03;;;;;;;9.28;4.33;;;;;;;6.60;88.16;97857.67;1737528;80;20911;-83
2022/05/29 04:48:29;;;;;;;6.60;4.40;;;;;;;6.76;87.99;97857.25;1763173;80;21039;-82
2022/05/29 04:51:02;;;;;;;9.28;4.28;;;;;;;6.94;87.88;97856.83;1779354;80;21278;-83
2022/05/29 04:53:29;;;;;;;8.30;4.60;;;;;;;7.10;87.58;97859.63;1775493;80;20997;-83
2022/05/29 04:55:56;;;;;;;9.68;4.42;;;;;;;7.22;87.29;97852.13;1776642;80;21017;-85
2022/05/29 04:58:23;;;;;;;10.43;5.10;;;;;;;7.31;86.36;97844.63;1759453;79;21054;-83
2022/05/29 05:00:49;;;;;;;8.48;4.42;;;;;;;7.39;85.48;97845.20;1741857;80;21519;-86
2022/05/29 05:03:15;;;;;;;9.45;4.53;;;;;;;7.46;84.88;97841.73;1759605;80;21154;-86
2022/05/29 05:05:42;;;;;;;8.48;5.15;;;;;;;7.55;84.50;97836.91;1773437;80;21009;-83
2022/05/29 05:08:08;;;;;;;8.03;4.97;;;;;;;7.72;84.81;97839.93;1775152;80;20969;-86
2022/05/29 05:10:34;;;;;;;9.90;5.55;;;;;;;7.92;84.28;97839.97;1779597;80;21389;-83
2022/05/29 05:12:59;;;;;;;8.40;4.33;;;;;;;8.00;84.30;97838.10;1778502;80;21611;-83
2022/05/29 05:15:25;;;;;;;10.00;4.67;;;;;;;8.20;83.40;97829.21;1779247;80;21054;-83
2022/05/29 05:17:51;;;;;;;7.95;4.90;;;;;;;8.30;83.40;97825.73;1779252;80;21686;-83
2022/05/29 05:20:17;;;;;;;6.92;5.20;;;;;;;8.43;82.50;97826.02;1779240;80;20874;-85
2022/05/29 05:22:43;;;;;;;9.58;4.33;;;;;;;8.52;82.55;97833.04;1775485;80;21015;-83
2022/05/29 05:25:10;;;;;;;8.83;4.15;;;;;;;8.73;81.95;97826.56;1779136;80;20897;-83
2022/05/29 05:27:36;;;;;;;8.33;5.12;;;;;;;8.86;81.38;97824.36;1774753;80;21207;-83
2022/05/29 05:30:02;;;;;;;7.05;4.10;;;;;;;8.88;80.53;97831.11;1779247;80;21558;-83
2022/05/29 05:32:28;;;;;;;7.72;5.55;;;;;;;8.95;80.62;97819.48;1779228;79;21031;-82
2022/05/29 05:34:54;;;;;;;7.35;4.62;;;;;;;9.05;79.55;97830.26;1778896;80;20869;-83
2022/05/29 05:37:20;;;;;;;6.33;4.58;;;;;;;9.09;80.19;97819.72;1779455;79;21017;-83
2022/05/29 05:39:46;;;;;;;11.95;4.78;;;;;;;9.36;81.15;97814.50;1772908;80;22267;-85
2022/05/29 05:42:12;;;;;;;8.55;4.55;;;;;;;9.70;80.43;97817.31;1778580;79;21038;-86
2022/05/29 05:44:38;;;;;;;9.10;5.22;;;;;;;9.85;80.37;97809.12;1760603;80;20970;-84
2022/05/29 05:47:04;;;;;;;9.88;4.15;;;;;;;10.01;79.19;97808.48;1779111;80;20945;-86
2022/05/29 05:49:30;;;;;;;7.28;3.85;;;;;;;10.58;79.36;97813.75;1772498;80;21071;-86
2022/05/29 05:51:58;;;;;;;9.08;3.85;;;;;;;10.58;79.36;97813.75;1779293;79;22510;-86
2022/05/29 05:54:24;;;;;;;5.85;3.12;;;;;;;10.77;79.12;97815.20;1775610;80;21059;-83
2022/05/29 05:56:51;;;;;;;5.72;3.77;;;;;;;10.97;78.40;97812.30;1779374;80;20965;-86
2022/05/29 05:59:17;;;;;;;6.35;4.33;;;;;;;11.23;75.96;97811.48;1764503;80;20996;-86
2022/05/29 06:01:43;;;;;;;6.47;3.10;;;;;;;11.23;75.96;97811.48;1737446;81;21487;-84
2022/05/29 06:04:08;;;;;;;6.05;2.92;;;;;;;11.27;76.00;97811.15;1754579;80;21147;-83
2022/05/29 06:06:34;;;;;;;5.05;3.15;;;;;;;11.36;74.83;97795.84;1778693;79;20920;-84
2022/05/29 06:09:00;;;;;;;5.35;3.00;;;;;;;11.56;74.75;97801.59;1772503;80;21107;-86
2022/05/29 06:11:28;;;;;;;6.60;3.20;;;;;;;11.76;74.22;97796.44;1714145;81;21517;-83
2022/05/29 06:13:54;;;;;;;7.25;3.77;;;;;;;11.89;72.52;97794.95;1770384;80;21425;-83
2022/05/29 06:16:20;;;;;;;7.78;3.33;;;;;;;11.96;73.07;97796.16;1778715;80;21061;-83
2022/05/29 06:18:46;;;;;;;6.20;3.45;;;;;;;12.19;73.14;97792.31;1765339;80;20941;-83
2022/05/29 06:21:12;;;;;;;7.55;3.58;;;;;;;12.34;71.61;97801.03;1779540;80;20984;-83
2022/05/29 06:23:38;;;;;;;5.60;3.02;;;;;;;12.45;69.98;97792.70;1778921;80;20956;-83
2022/05/29 06:26:12;;;;;;;9.55;3.98;;;;;;;12.65;68.64;97785.03;1776924;80;20901;-84
2022/05/29 06:28:38;;;;;;;5.75;3.00;;;;;;;12.90;70.64;97789.22;1776560;80;22131;-84
2022/05/29 06:31:05;;;;;;;4.97;3.08;;;;;;;13.23;70.61;97786.42;1779248;80;20997;-86
2022/05/29 06:33:31;;;;;;;7.70;2.62;;;;;;;13.53;70.29;97783.66;1778801;79;21084;-84
2022/05/29 06:36:15;;;;;;;7.17;3.22;;;;;;;13.75;68.94;97779.61;1778908;80;20952;-84
2022/05/29 06:38:41;;;;;;;6.12;3.00;;;;;;;13.82;63.82;97788.73;1778806;80;21024;-87
2022/05/29 06:41:09;;;;;;;8.80;2.40;;;;;;;13.89;62.73;97781.52;1779040;80;22006;-87
2022/05/29 06:43:35;;;;;;;4.00;1.57;;;;;;;14.02;61.40;97784.77;1778893;79;22059;-87
2022/05/29 06:46:01;;;;;;;6.80;1.55;;;;;;;14.19;62.41;97776.73;1778998;80;20901;-83
2022/05/29 06:48:28;;;;;;;6.72;2.12;;;;;;;14.33;61.00;97775.30;1754643;80;21674;-84
2022/05/29 06:50:54;;;;;;;6.65;2.17;;;;;;;14.28;57.05;97782.25;1779436;80;21004;-84
2022/05/29 06:53:20;;;;;;;4.62;2.60;;;;;;;14.09;54.84;97780.48;1778441;79;21293;-83
2022/05/29 06:55:53;;;;;;;3.75;2.30;;;;;;;14.19;57.47;97777.30;1779408;80;21567;-83
2022/05/29 06:58:20;;;;;;;7.40;2.77;;;;;;;14.40;57.60;97783.30;1778527;79;21024;-87
2022/05/29 07:08:59;;;;;;;6.83;2.22;;;;;;;14.74;53.55;97762.84;1778413;80;21424;-87
2022/05/29 07:11:27;;;;;;;16.55;2.25;;;;;;;14.95;56.82;97758.48;1779330;79;20853;-84
2022/05/29 07:13:54;;;;;;;6.22;2.45;;;;;;;15.30;54.63;97753.14;1778822;80;20992;-84
2022/05/29 07:16:20;;;;;;;10.65;3.12;;;;;;;15.30;55.88;97753.14;1779212;80;20985;-84
2022/05/29 07:18:48;;;;;;;7.17;2.45;;;;;;;15.29;55.18;97743.32;1779356;79;21294;-84
2022/05/29 07:21:13;;;;;;;6.33;1.92;;;;;;;15.40;53.63;97743.85;1779347;80;21025;-87
2022/05/29 07:23:40;;;;;;;9.93;2.98;;;;;;;15.64;54.61;97738.80;1779021;80;21008;-84
2022/05/29 07:26:05;;;;;;;6.22;2.10;;;;;;;15.71;55.67;97733.64;1779210;80;21539;-84
2022/05/29 07:28:31;;;;;;;5.95;1.90;;;;;;;15.99;55.53;97736.89;1774995;79;20849;-87
2022/05/29 07:30:57;;;;;;;4.60;1.82;;;;;;;16.38;51.34;97742.48;1779488;80;21335;-85
2022/05/29 07:33:25;;;;;;;4.70;1.98;;;;;;;16.96;54.11;97733.67;1778855;80;21563;-85
2022/05/29 07:35:52;;;;;;;11.75;2.77;;;;;;;17.69;50.78;97735.63;1778884;80;21408;-88
2022/05/29 07:38:17;;;;;;;6.08;2.02;;;;;;;18.50;52.94;97739.02;1759915;79;20984;-88
2022/05/29 07:40:43;;;;;;;5.08;2.72;;;;;;;18.59;50.26;97732.29;1776456;80;20906;-84
2022/05/29 07:43:26;;;;;;;8.05;2.30;;;;;;;18.76;49.13;97726.42;1773862;80;21238;-85
2022/05/29 07:45:56;;;;;;;3.33;1.77;;;;;;;19.24;48.76;97724.31;1759108;80;21397;-84
2022/05/29 07:48:26;;;;;;;5.58;1.70;;;;;;;19.71;48.59;97723.83;1779158;79;21661;-86
2022/05/29 07:50:52;;;;;;;4.62;1.80;;;;;;;20.05;47.41;97728.56;1778843;80;20992;-88
2022/05/29 07:53:18;;;;;;;7.10;1.72;;;;;;;20.04;44.81;97733.84;1778908;79;21025;-88
2022/05/29 07:55:44;;;;;;;9.03;3.30;;;;;;;20.39;43.72;97736.22;1779102;80;21298;-86
2022/05/29 07:58:12;;;;;;;8.15;2.37;;;;;;;19.93;39.77;97734.33;1779101;80;20941;-89
2022/05/29 08:00:38;;;;;;;5.50;2.17;;;;;;;19.76;40.49;97729.09;1778985;80;21051;-89
2022/05/29 08:03:04;;;;;;;8.08;2.10;;;;;;;20.71;43.16;97723.37;1779215;80;21425;-88
2022/05/29 08:05:31;;;;;;;4.70;2.10;;;;;;;20.98;42.73;97719.53;1724148;81;21021;-86
2022/05/29 08:07:57;;;;;;;4.55;1.90;;;;;;;21.50;41.85;97723.96;1771440;80;21366;-89
2022/05/29 08:10:23;;;;;;;4.00;2.00;;;;;;;21.80;41.33;97717.38;1772434;80;20995;-88
2022/05/29 08:12:49;;;;;;;5.50;2.60;;;;;;;21.75;38.63;97722.58;1771331;80;20944;-89
2022/05/29 08:15:15;;;;;;;5.80;2.05;;;;;;;21.46;38.53;97718.96;1756115;80;21502;-88
2022/05/29 08:17:41;;;;;;;4.50;1.60;;;;;;;21.13;36.87;97720.91;1775104;79;20989;-89
2022/05/29 08:20:09;;;;;;;7.67;2.27;;;;;;;21.02;36.20;97714.34;1779254;80;21101;-88
2022/05/29 08:22:35;;;;;;;6.85;2.20;;;;;;;22.08;38.99;97715.83;1775307;79;21028;-90
2022/05/29 08:30:51;;;;;;;4.47;1.60;;;;;;;22.08;37.75;97702.03;1770583;80;21469;-89
2022/05/29 08:33:01;;;;;;;4.37;1.70;;;;;;;22.24;35.80;97702.76;1746693;80;21089;-90
2022/05/29 08:35:27;;;;;;;6.85;1.80;;;;;;;23.00;36.98;97698.28;1779085;80;20993;-85
2022/05/29 08:37:53;;;;;;;5.00;1.87;;;;;;;23.55;36.72;97693.80;1779276;80;20902;-90
2022/05/29 08:40:19;;;;;;;3.45;1.45;;;;;;;23.72;34.79;97701.59;1780957;80;21024;-90
2022/05/29 08:42:45;;;;;;;4.03;2.30;;;;;;;23.94;33.88;97691.63;1779260;80;21009;-89
2022/05/29 08:45:14;;;;;;;6.45;2.37;;;;;;;23.62;30.46;97693.35;1779411;80;21022;-85
2022/05/29 08:47:39;;;;;;;3.10;1.52;;;;;;;24.66;33.10;97689.11;1779189;79;21008;-90
2022/05/29 08:50:07;;;;;;;4.55;1.62;;;;;;;24.59;32.41;97691.80;1756748;80;20891;-89
2022/05/29 08:52:48;;;;;;;2.80;1.50;;;;;;;23.91;30.40;97689.00;1778022;79;21021;-89
2022/05/29 08:55:22;;;;;;;3.45;1.62;;;;;;;24.44;31.11;97673.67;1772796;80;21044;-85
2022/05/29 08:58:24;;;;;;;4.97;1.70;;;;;;;24.32;29.47;97678.66;1768311;80;21135;-90
2022/05/29 09:01:04;;;;;;;6.53;1.72;;;;;;;25.44;30.30;97675.14;1774850;80;21505;-85
2022/05/29 09:03:53;;;;;;;4.67;1.40;;;;;;;25.43;29.54;97667.41;1779064;80;21084;-90
2022/05/29 09:06:28;;;;;;;5.83;1.95;;;;;;;24.56;30.27;97673.98;1771199;80;20982;-90
2022/05/29 09:09:08;;;;;;;3.58;1.45;;;;;;;24.29;28.82;97670.50;1765483;80;21048;-88
2022/05/29 09:11:40;;;;;;;4.95;1.75;;;;;;;24.41;29.29;97670.25;1752520;80;21773;-89
2022/05/29 09:14:12;;;;;;;6.05;1.70;;;;;;;23.36;30.93;97673.39;1748404;80;21044;-89
2022/05/29 09:16:47;;;;;;;7.25;2.00;;;;;;;21.92;31.79;97677.23;1779533;79;21492;-86
2022/05/29 09:19:39;;;;;;;4.42;1.57;;;;;;;23.55;30.12;97673.86;1779377;80;21057;-86
2022/05/29 09:22:34;;;;;;;2.92;1.30;;;;;;;24.24;29.25;97668.05;1755332;80;21020;-90
2022/05/29 09:25:31;;;;;;;4.30;1.47;;;;;;;25.54;27.78;97668.27;1756323;80;21044;-90
2022/05/29 09:28:24;;;;;;;4.28;1.50;;;;;;;24.62;28.75;97670.28;1741145;80;21498;-85
2022/05/29 09:30:48;;;;;;;6.40;1.50;;;;;;;22.55;31.00;97666.45;1756377;80;21433;-85
2022/05/29 09:33:25;;;;;;;4.00;1.80;;;;;;;21.48;32.44;97669.20;1779341;80;21096;-89
2022/05/29 09:36:23;;;;;;;5.08;2.05;;;;;;;20.38;34.74;97667.80;1755660;80;20992;-85
2022/05/29 09:39:13;;;;;;;3.08;1.47;;;;;;;19.60;35.90;97666.38;1777055;80;21260;-85
2022/05/29 09:41:42;;;;;;;2.50;1.32;;;;;;;19.08;37.31;97668.47;1737560;80;21075;-88
2022/05/29 09:44:15;;;;;;;3.20;1.17;;;;;;;18.94;37.11;97657.81;1775296;80;21048;-84
2022/05/29 09:46:46;;;;;;;3.37;1.45;;;;;;;18.61;37.45;97651.80;1781190;80;21029;-88
2022/05/29 09:49:45;;;;;;;3.75;1.98;;;;;;;18.70;37.42;97639.95;1779502;80;21436;-89
2022/05/29 09:52:20;;;;;;;2.52;1.30;;;;;;;20.35;35.95;97636.87;1779490;80;21098;-85
2022/05/29 09:55:23;;;;;;;2.77;1.50;;;;;;;20.96;34.45;97628.20;1779304;80;21060;-89
2022/05/29 09:57:55;;;;;;;3.08;1.52;;;;;;;22.05;32.45;97630.98;1764607;80;21060;-89
2022/05/29 10:00:29;;;;;;;5.15;1.50;;;;;;;24.72;29.02;97622.50;1781252;80;20996;-89
2022/05/29 10:02:55;;;;;;;4.65;1.32;;;;;;;27.22;28.12;97616.81;1766350;79;21483;-89
2022/05/29 10:05:29;;;;;;;2.65;1.10;;;;;;;25.97;28.71;97610.25;1766335;80;21164;-89
2022/05/29 10:07:57;;;;;;;2.80;1.20;;;;;;;24.02;27.15;97605.34;1779187;80;20997;-88
2022/05/29 10:10:30;;;;;;;3.02;1.20;;;;;;;24.15;29.24;97605.28;1779319;80;21009;-89
2022/05/29 10:12:58;;;;;;;2.98;1.22;;;;;;;23.77;29.79;97610.58;1775486;80;21012;-89
2022/05/29 10:15:33;;;;;;;2.02;1.12;;;;;;;23.06;29.46;97608.95;1758369;80;21017;-86
2022/05/29 10:18:05;;;;;;;4.22;1.20;;;;;;;23.64;29.92;97601.13;1765872;80;21302;-86
2022/05/29 10:20:36;;;;;;;5.37;2.05;;;;;;;22.42;29.75;97605.91;1772750;80;21048;-88
2022/05/29 10:23:06;;;;;;;2.65;1.70;;;;;;;23.17;30.04;97607.76;1733363;80;21448;-85
2022/05/29 10:25:36;;;;;;;4.05;2.00;;;;;;;22.92;31.39;97605.41;1779194;80;20965;-87
2022/05/29 10:28:15;;;;;;;3.02;1.47;;;;;;;21.75;32.75;97610.91;1779544;79;20989;-88
2022/05/29 10:30:58;;;;;;;3.17;1.60;;;;;;;21.11;33.10;97612.25;1779643;80;21299;-84
2022/05/29 10:33:27;;;;;;;7.25;1.85;;;;;;;21.37;33.22;97607.55;1758006;79;21043;-88
2022/05/29 10:35:58;;;;;;;5.25;1.62;;;;;;;20.97;33.26;97612.70;1776055;80;21000;-88
2022/05/29 10:38:28;;;;;;;3.52;1.30;;;;;;;20.63;33.48;97617.56;1779256;80;21001;-85
2022/05/29 10:40:57;;;;;;;3.15;1.37;;;;;;;20.17;34.29;97615.77;1779192;80;21560;-84
2022/05/29 10:43:45;;;;;;;3.98;1.57;;;;;;;19.86;34.46;97614.52;1758225;80;21249;-85
2022/05/29 10:46:18;;;;;;;3.92;1.32;;;;;;;19.67;33.82;97613.80;1775023;80;20996;-85
2022/05/29 10:49:25;;;;;;;2.42;1.42;;;;;;;19.20;35.58;97615.47;1779054;79;20980;-84
2022/05/29 10:52:11;;;;;;;4.03;1.87;;;;;;;19.44;34.90;97615.42;1779104;79;21436;-87
2022/05/29 10:55:01;;;;;;;3.62;1.22;;;;;;;19.40;35.77;97609.84;1772236;80;22159;-87
2022/05/29 10:57:58;;;;;;;3.52;1.25;;;;;;;19.36;36.23;97613.61;1768351;80;21067;-87
2022/05/29 11:00:44;;;;;;;2.20;1.32;;;;;;;18.88;35.44;97626.23;1777546;80;21063;-87
2022/05/29 11:03:36;;;;;;;3.83;1.55;;;;;;;18.83;36.60;97625.11;1708019;80;21428;-88
2022/05/29 11:06:24;;;;;;;10.95;1.72;;;;;;;18.64;36.96;97622.91;1768165;80;21084;-84
2022/05/29 11:09:27;;;;;;;6.08;1.75;;;;;;;18.56;37.22;97626.55;1776245;80;21017;-87
2022/05/29 11:12:11;;;;;;;6.33;1.55;;;;;;;18.26;38.21;97621.80;1770685;79;21151;-85
2022/05/29 11:15:03;;;;;;;3.12;1.67;;;;;;;18.08;39.66;97618.44;1778944;80;21234;-84
2022/05/29 11:18:07;;;;;;;7.67;2.40;;;;;;;17.88;39.61;97622.83;1751318;80;20980;-87
2022/05/29 11:21:06;;;;;;;4.72;1.67;;;;;;;17.68;40.13;97619.50;1774586;80;21488;-87
2022/05/29 11:23:52;;;;;;;;;;;;;;;17.47;40.70;97620.31;1763923;80;21007;-87
2022/05/29 11:26:52;;;;;;;5.00;1.98;;;;;;;17.19;41.27;97624.72;1761168;80;21231;-87
2022/05/29 11:29:33;;;;;;;5.12;1.65;;;;;;;17.36;40.98;97612.28;1766457;80;20969;-86
2022/05/29 11:32:38;;;;;;;3.67;1.60;;;;;;;17.38;41.56;97607.83;1778405;79;21056;-84
2022/05/29 11:35:52;;;;;;;6.15;2.10;;;;;;;17.91;40.55;97607.64;1775101;80;21175;-87
2022/05/29 11:38:53;;;;;;;5.60;1.87;;;;;;;18.55;39.62;97605.17;1753080;80;21019;-87
2022/05/29 11:41:51;;;;;;;3.00;1.52;;;;;;;21.98;35.41;97600.52;1745673;80;21116;-85
2022/05/29 11:44:43;;;;;;;3.27;1.37;;;;;;;23.35;33.39;97600.52;1742103;80;21481;-88
2022/05/29 11:53:26;;;;;;;;;;;;;;;24.15;27.26;97561.00;1781324;79;21028;-85
2022/05/29 11:55:54;;;;;;;2.65;1.02;;;;;;;23.75;28.30;97551.47;1754970;80;21833;-88
2022/05/29 11:58:24;;;;;;;2.80;1.20;;;;;;;23.13;29.43;97546.89;1774767;80;20984;-88
2022/05/29 12:00:55;;;;;;;2.10;1.10;;;;;;;23.21;28.49;97547.20;1778370;80;21040;-85
2022/05/29 12:03:50;;;;;;;5.78;1.40;;;;;;;23.78;29.69;97531.37;1771418;80;20977;-84
2022/05/29 12:06:33;;;;;;;5.20;1.05;;;;;;;23.05;29.02;97541.05;1756627;80;21003;-84
2022/05/29 12:09:12;;;;;;;2.15;1.00;;;;;;;23.42;29.39;97532.09;1767124;80;21311;-88
2022/05/29 12:12:17;;;;;;;6.60;1.45;;;;;;;21.89;29.67;97562.94;1765736;79;21037;-87
2022/05/29 12:15:03;;;;;;;3.52;1.30;;;;;;;20.80;30.48;97564.31;1775573;80;21000;-88
2022/05/29 12:17:54;;;;;;;2.80;1.12;;;;;;;20.36;32.19;97562.80;1779278;79;21603;-88
2022/05/29 12:20:47;;;;;;;4.90;1.40;;;;;;;22.34;30.31;97544.85;1755731;80;21197;-89
2022/05/29 12:23:32;;;;;;;2.58;1.10;;;;;;;25.08;28.06;97547.98;1736521;82;21084;-85
2022/05/29 12:26:06;;;;;;;2.67;1.25;;;;;;;27.72;26.27;97546.36;1738931;82;22090;-89
2022/05/29 12:29:04;;;;;;;4.08;1.22;;;;;;;27.46;24.56;97565.11;1730688;82;21443;-86
2022/05/29 12:31:43;;;;;;;2.98;1.50;;;;;;;28.36;22.69;97552.38;1737171;81;21395;-85
2022/05/29 12:34:23;;;;;;;4.25;1.07;;;;;;;28.72;23.85;97551.33;1769725;80;21464;-84
2022/05/29 12:37:12;;;;;;;2.27;1.02;;;;;;;27.28;25.08;97551.06;1763972;79;21076;-89